Time;durP1;ratioP1;P1;durP2;ratioP2;P2;SDS_P1;SDS_P2;PMS_P1;PMS_P2;Temp;Humidity;BMP_temperature;BMP_pressure;BME280_temperature;BME280_humidity;BME280_pressure;Samples;Min_cycle;Max_cycle;Signal;HPM_P1;HPM_P2
2022/02/20 00:00:54;;;;;;;;;0.75;0.75;;;;;20.32;36.01;101436.63;5073943;27;51892;-52
2022/02/20 00:03:19;;;;;;;;;2.50;0.75;;;;;20.32;35.76;101435.75;5074197;27;51701;-50
2022/02/20 00:05:45;;;;;;;;;3.75;2.00;;;;;20.30;35.93;101440.63;5073939;27;51124;-53
2022/02/20 00:08:11;;;;;;;;;0.50;0.50;;;;;20.30;35.69;101448.88;5074233;27;51211;-50
2022/02/20 00:10:36;;;;;;;;;1.00;1.00;;;;;20.28;35.87;101440.81;5072510;28;52765;-52
2022/02/20 00:13:03;;;;;;;;;0.25;0.25;;;;;20.28;35.97;101439.97;5073808;27;50986;-51
2022/02/20 00:15:31;;;;;;;;;1.25;1.00;;;;;20.27;35.95;101441.88;5073874;27;51051;-54
2022/02/20 00:17:57;;;;;;;;;2.25;1.50;;;;;20.27;35.80;101441.03;5074501;27;51373;-50
2022/02/20 00:20:25;;;;;;;;;0.50;0.50;;;;;20.27;35.97;101443.78;5073437;27;51722;-48
2022/02/20 00:22:51;;;;;;;;;1.75;1.00;;;;;20.25;35.69;101437.66;5074176;27;51088;-51
2022/02/20 00:25:16;;;;;;;;;2.00;1.00;;;;;20.23;35.65;101437.84;5073810;28;51205;-49
2022/02/20 00:27:42;;;;;;;;;2.25;2.25;;;;;20.23;35.88;101434.25;5073996;27;51293;-51
2022/02/20 00:30:07;;;;;;;;;1.50;1.00;;;;;20.21;35.83;101431.69;5073911;27;51180;-50
2022/02/20 00:32:33;;;;;;;;;1.00;1.00;;;;;20.22;36.17;101432.53;5074909;27;51045;-52
2022/02/20 00:34:58;;;;;;;;;2.50;1.25;;;;;20.19;35.88;101428.31;5076804;27;50959;-48
2022/02/20 00:37:23;;;;;;;;;1.25;1.25;;;;;20.19;35.87;101425.56;5077844;27;51376;-48
2022/02/20 00:39:49;;;;;;;;;2.00;1.00;;;;;20.19;35.97;101426.41;5076919;27;51084;-52
2022/02/20 00:42:14;;;;;;;;;1.00;1.00;;;;;20.19;35.87;101431.91;5077105;27;51131;-54
2022/02/20 00:44:40;;;;;;;;;2.00;2.00;;;;;20.17;36.04;101439.53;5077232;27;51073;-53
2022/02/20 00:47:05;;;;;;;;;3.25;1.00;;;;;20.17;35.93;101435.91;5078392;27;51320;-52
2022/02/20 00:49:30;;;;;;;;;0.25;0.25;;;;;20.15;36.16;101432.53;5077092;27;51860;-52
2022/02/20 00:51:56;;;;;;;;;2.25;1.75;;;;;20.16;36.07;101443.31;5076738;27;51219;-53
2022/02/20 00:54:21;;;;;;;;;2.00;1.00;;;;;20.14;36.03;101437.19;5076978;27;51210;-49
2022/02/20 00:56:46;;;;;;;;;1.50;1.50;;;;;20.13;36.22;101434.66;5076083;27;51171;-54
2022/02/20 00:59:12;;;;;;;;;1.00;1.00;;;;;20.13;36.06;101437.41;5076384;27;51082;-52
2022/02/20 01:01:37;;;;;;;;;2.25;1.00;;;;;20.12;35.86;101433.81;5075917;28;51235;-52
2022/02/20 01:04:03;;;;;;;;;1.00;1.00;;;;;20.11;36.21;101426.59;5077051;27;51109;-53
2022/02/20 01:06:28;;;;;;;;;0.75;0.00;;;;;20.11;36.17;101429.34;5077093;27;51198;-51
2022/02/20 01:08:54;;;;;;;;;1.00;1.00;;;;;20.11;36.19;101425.72;5077111;27;51728;-52
2022/02/20 01:11:20;;;;;;;;;1.00;0.00;;;;;20.10;36.13;101421.28;5076663;27;50962;-52
2022/02/20 01:13:46;;;;;;;;;1.00;1.00;;;;;20.10;36.49;101424.03;5077570;27;51108;-52
2022/02/20 01:16:14;;;;;;;;;2.25;1.00;;;;;20.09;36.15;101425.94;5076333;27;51172;-52
2022/02/20 01:18:40;;;;;;;;;2.50;1.00;;;;;20.09;36.36;101420.44;5069223;28;51971;-52
2022/02/20 01:21:06;;;;;;;;;1.00;1.00;;;;;20.08;36.25;101429.75;5077142;27;51135;-50
2022/02/20 01:23:31;;;;;;;;;2.00;1.50;;;;;20.08;36.07;101431.66;5077000;28;50977;-52
2022/02/20 01:25:56;;;;;;;;;0.50;0.50;;;;;20.07;36.26;101429.97;5076297;28;51075;-53
2022/02/20 01:28:22;;;;;;;;;1.00;1.00;;;;;20.08;36.21;101434.41;5076731;27;51357;-50
2022/02/20 01:30:47;;;;;;;;;0.75;0.00;;;;;20.06;36.22;101428.25;5077048;27;51160;-53
2022/02/20 01:33:13;;;;;;;;;1.00;0.00;;;;;20.05;36.34;101421.91;5076438;27;51274;-54
2022/02/20 01:35:38;;;;;;;;;0.50;0.50;;;;;20.05;36.48;101423.81;5076584;27;51116;-52
2022/02/20 01:38:04;;;;;;;;;0.25;0.25;;;;;20.04;36.46;101422.13;5077225;27;51592;-52
2022/02/20 01:40:30;;;;;;;;;3.50;1.00;;;;;20.03;36.18;101431.44;5076947;27;51010;-53
2022/02/20 01:43:00;;;;;;;;;1.25;1.25;;;;;20.03;36.11;101432.28;5075907;27;51055;-53
2022/02/20 01:45:26;;;;;;;;;1.00;1.00;;;;;20.02;36.39;101449.84;5077123;27;51073;-52
2022/02/20 01:47:52;;;;;;;;;0.75;0.75;;;;;20.01;36.27;101439.91;5076200;27;51183;-52
2022/02/20 01:50:17;;;;;;;;;0.75;0.75;;;;;20.01;36.44;101445.41;5075492;28;51137;-51
2022/02/20 01:52:44;;;;;;;;;2.50;0.00;;;;;20.01;36.33;101439.91;5076260;27;51139;-54
2022/02/20 01:55:10;;;;;;;;;0.00;0.00;;;;;20.01;36.27;101433.50;5076628;27;51527;-49
2022/02/20 01:57:40;;;;;;;;;0.00;0.00;;;;;20.00;36.34;101431.81;5075662;27;51983;-53
2022/02/20 02:00:09;;;;;;;;;0.00;0.00;;;;;20.00;36.64;101426.31;5076438;27;51262;-53
2022/02/20 02:02:36;;;;;;;;;0.75;0.75;;;;;19.98;36.69;101420.19;5074811;27;51109;-52
2022/02/20 02:05:02;;;;;;;;;0.00;0.00;;;;;19.99;36.50;101419.97;5076328;27;51442;-50
2022/02/20 02:07:28;;;;;;;;;1.00;1.00;;;;;19.98;36.51;101421.03;5076382;27;51004;-52
2022/02/20 02:09:53;;;;;;;;;1.00;1.00;;;;;19.97;36.42;101416.59;5076082;27;51035;-52
2022/02/20 02:12:19;;;;;;;;;0.00;0.00;;;;;19.97;36.44;101419.34;5076190;27;51256;-53
2022/02/20 02:14:57;;;;;;;;;1.00;1.00;;;;;19.98;36.81;101426.53;5076208;27;51168;-49
2022/02/20 02:17:23;;;;;;;;;1.00;0.50;;;;;19.97;36.68;101426.75;5076249;27;51762;-52
2022/02/20 02:19:49;;;;;;;;;1.00;1.00;;;;;19.96;36.63;101427.78;5076401;27;51321;-50
2022/02/20 02:22:18;;;;;;;;;0.00;0.00;;;;;19.95;36.76;101423.34;5076348;27;51215;-54
2022/02/20 02:24:43;;;;;;;;;4.25;1.75;;;;;19.95;36.44;101417.84;5075825;27;51049;-51
2022/02/20 02:27:12;;;;;;;;;1.00;0.50;;;;;19.95;36.52;101424.19;5076161;27;51799;-50
2022/02/20 02:29:38;;;;;;;;;0.25;0.00;;;;;19.94;36.52;101425.25;5076237;27;51384;-54
2022/02/20 02:32:03;;;;;;;;;1.00;1.00;;;;;19.94;36.69;101429.91;5076208;27;51021;-49
2022/02/20 02:34:30;;;;;;;;;1.00;1.00;;;;;19.93;36.54;101425.47;5076326;27;51033;-48
2022/02/20 02:36:55;;;;;;;;;3.00;1.25;;;;;19.93;36.70;101429.06;5075750;27;51712;-48
2022/02/20 02:39:20;;;;;;;;;0.00;0.00;;;;;19.92;36.81;101416.38;5076084;27;51132;-47
2022/02/20 02:41:46;;;;;;;;;0.25;0.00;;;;;19.93;36.58;101403.47;5075585;27;51173;-51
2022/02/20 02:44:11;;;;;;;;;0.50;0.50;;;;;19.91;36.71;101403.69;5075071;27;51198;-51
2022/02/20 02:46:36;;;;;;;;;1.25;1.25;;;;;19.91;36.50;101408.34;5075337;27;51032;-52
2022/02/20 02:49:04;;;;;;;;;0.00;0.00;;;;;19.89;36.59;101414.84;5067820;28;51067;-51
2022/02/20 02:51:30;;;;;;;;;3.25;0.75;;;;;19.89;36.57;101414.00;5091322;27;51174;-52
2022/02/20 02:53:56;;;;;;;;;0.00;0.00;;;;;19.89;36.71;101420.34;5075012;27;50914;-50
2022/02/20 02:56:22;;;;;;;;;0.00;0.00;;;;;19.89;36.64;101425.84;5072915;28;51118;-49
2022/02/20 02:58:47;;;;;;;;;0.25;0.25;;;;;19.88;36.82;101421.41;5074536;27;51249;-51
2022/02/20 03:01:13;;;;;;;;;0.75;0.75;;;;;19.88;36.88;101428.81;5075182;27;51461;-52
2022/02/20 03:03:39;;;;;;;;;0.25;0.25;;;;;19.87;36.64;101416.97;5075906;27;51144;-52
2022/02/20 03:06:13;;;;;;;;;1.00;1.00;;;;;19.87;36.83;101427.97;5074912;27;51875;-53
2022/02/20 03:08:39;;;;;;;;;1.50;0.75;;;;;19.86;36.61;101417.19;5075743;27;51337;-51
2022/02/20 03:11:05;;;;;;;;;1.50;1.00;;;;;19.86;36.79;101419.94;5075132;27;51363;-54
2022/02/20 03:13:32;;;;;;;;;1.50;1.00;;;;;19.86;36.88;101422.69;5075783;28;51767;-48
2022/02/20 03:15:58;;;;;;;;;1.75;1.00;;;;;19.85;36.98;101423.72;5074835;27;51106;-53
2022/02/20 03:18:24;;;;;;;;;0.00;0.00;;;;;19.85;36.64;101413.56;5067564;28;50991;-52
2022/02/20 03:20:49;;;;;;;;;2.50;1.00;;;;;19.84;36.72;101406.38;5075099;28;51035;-49
2022/02/20 03:23:15;;;;;;;;;1.75;1.00;;;;;19.84;37.11;101411.88;5075581;27;51370;-52
2022/02/20 03:25:40;;;;;;;;;2.00;1.00;;;;;19.84;36.73;101424.78;5075296;27;51469;-51
2022/02/20 03:28:05;;;;;;;;;1.00;1.00;;;;;19.83;36.76;101431.34;5074944;27;51138;-53
2022/02/20 03:30:31;;;;;;;;;0.25;0.25;;;;;19.83;36.90;101428.59;5075203;27;51346;-51
2022/02/20 03:32:57;;;;;;;;;0.75;0.75;;;;;19.83;37.07;101447.84;5074853;27;51305;-53
2022/02/20 03:35:24;;;;;;;;;0.00;0.00;;;;;19.81;36.87;101434.28;5066792;28;52936;-52
2022/02/20 03:37:49;;;;;;;;;1.75;1.00;;;;;19.81;36.98;101428.81;5075270;27;51331;-49
2022/02/20 03:40:14;;;;;;;;;1.00;0.50;;;;;19.82;36.98;101432.41;5075346;27;51111;-52
2022/02/20 03:42:40;;;;;;;;;2.75;1.00;;;;;19.83;36.83;101434.09;5074888;27;52138;-53
2022/02/20 03:45:06;;;;;;;;;0.50;0.00;;;;;19.82;36.92;101441.50;5074910;27;50987;-50
2022/02/20 03:47:32;;;;;;;;;3.25;1.00;;;;;19.84;37.04;101430.28;5074942;27;51391;-50
2022/02/20 03:49:58;;;;;;;;;1.00;1.00;;;;;19.83;36.69;101431.34;5075132;27;51148;-53
2022/02/20 03:52:23;;;;;;;;;1.50;0.25;;;;;19.80;37.10;101438.09;5075113;27;51112;-50
2022/02/20 03:54:48;;;;;;;;;0.75;0.50;;;;;19.82;37.06;101446.13;5075004;27;51119;-50
2022/02/20 03:57:14;;;;;;;;;0.00;0.00;;;;;19.81;37.15;101444.44;5074723;27;50965;-52
2022/02/20 03:59:39;;;;;;;;;1.00;1.00;;;;;19.80;37.32;101438.09;5074958;27;51104;-52
2022/02/20 04:02:04;;;;;;;;;1.25;0.50;;;;;19.79;37.15;101436.38;5075502;27;51159;-53
2022/02/20 04:04:30;;;;;;;;;3.00;1.25;;;;;19.79;36.86;101435.53;5074616;28;51033;-48
2022/02/20 04:06:55;;;;;;;;;0.50;0.50;;;;;19.78;36.89;101439.34;5076531;27;51100;-50
2022/02/20 04:09:20;;;;;;;;;1.75;1.75;;;;;19.76;37.11;101439.53;5078823;27;50945;-53
2022/02/20 04:11:46;;;;;;;;;1.00;0.50;;;;;19.77;36.82;101430.25;5078428;27;51105;-53
2022/02/20 04:14:11;;;;;;;;;0.25;0.25;;;;;19.77;37.10;101427.50;5077699;27;51186;-49
2022/02/20 04:16:36;;;;;;;;;1.00;1.00;;;;;19.77;36.96;101423.91;5078702;27;51066;-51
2022/02/20 04:19:03;;;;;;;;;1.75;1.00;;;;;19.76;36.85;101423.03;5078710;27;51171;-51
2022/02/20 04:21:29;;;;;;;;;2.00;0.75;;;;;19.75;36.92;101420.50;5078673;27;51300;-50
2022/02/20 04:23:54;;;;;;;;;0.00;0.00;;;;;19.76;36.89;101419.44;5077509;27;52215;-49
2022/02/20 04:26:20;;;;;;;;;1.50;1.00;;;;;19.75;37.03;101401.25;5078303;27;51556;-52
2022/02/20 04:28:45;;;;;;;;;0.25;0.25;;;;;19.75;37.11;101415.00;5078478;27;51009;-52
2022/02/20 04:31:11;;;;;;;;;0.00;0.00;;;;;19.72;37.05;101405.28;5078051;27;50965;-50
2022/02/20 04:33:37;;;;;;;;;1.00;1.00;;;;;19.73;36.92;101411.63;5077983;27;52598;-51
2022/02/20 04:36:03;;;;;;;;;3.25;0.75;;;;;19.73;37.28;101428.13;5077794;27;51103;-49
2022/02/20 04:38:29;;;;;;;;;1.25;1.00;;;;;19.72;37.24;101431.91;5078093;27;51152;-49
2022/02/20 04:40:54;;;;;;;;;2.00;0.25;;;;;19.72;36.96;101420.94;5078065;27;51172;-52
2022/02/20 04:43:20;;;;;;;;;1.75;0.50;;;;;19.72;37.26;101421.78;5077370;28;51069;-51
2022/02/20 04:45:45;;;;;;;;;1.00;1.00;;;;;19.70;37.34;101415.63;5078030;27;51040;-51
2022/02/20 04:48:10;;;;;;;;;0.00;0.00;;;;;19.71;37.30;101408.22;5078093;27;51528;-47
2022/02/20 04:50:36;;;;;;;;;0.00;0.00;;;;;19.71;37.26;101400.00;5078181;27;51059;-51
2022/02/20 04:53:01;;;;;;;;;0.75;0.75;;;;;19.71;37.07;101386.25;5077128;27;52656;-50
2022/02/20 04:55:27;;;;;;;;;0.00;0.00;;;;;19.70;36.98;101381.81;5077886;27;50961;-53
2022/02/20 04:57:52;;;;;;;;;0.00;0.00;;;;;19.70;37.14;101379.06;5077839;27;51206;-54
2022/02/20 05:00:18;;;;;;;;;2.00;2.00;;;;;19.69;37.14;101369.09;5093774;27;51134;-51
2022/02/20 05:02:43;;;;;;;;;1.50;0.00;;;;;19.69;37.17;101369.09;5077141;27;51867;-52
2022/02/20 05:05:10;;;;;;;;;0.00;0.00;;;;;19.68;37.07;101378.38;5077504;27;51098;-52
2022/02/20 05:07:36;;;;;;;;;0.50;0.50;;;;;19.68;37.09;101368.25;5077788;27;51119;-52
2022/02/20 05:10:02;;;;;;;;;1.00;1.00;;;;;19.67;36.99;101368.44;5077741;27;51035;-51
2022/02/20 05:12:27;;;;;;;;;1.00;0.00;;;;;19.67;37.04;101360.19;5076515;27;51155;-48
2022/02/20 05:14:53;;;;;;;;;0.00;0.00;;;;;19.67;37.04;101357.44;5077696;27;51024;-50
2022/02/20 05:17:18;;;;;;;;;1.50;0.00;;;;;19.67;37.17;101360.19;5077304;27;51151;-51
2022/02/20 05:19:43;;;;;;;;;2.00;1.00;;;;;19.66;37.40;101347.50;5077287;27;51037;-51
2022/02/20 05:22:09;;;;;;;;;0.25;0.25;;;;;19.66;37.13;101353.00;5076710;27;51731;-52
2022/02/20 05:24:34;;;;;;;;;2.00;0.00;;;;;19.66;37.12;101353.00;5077696;27;50955;-51
2022/02/20 05:26:59;;;;;;;;;1.00;0.75;;;;;19.65;37.10;101343.06;5077420;27;51010;-50
2022/02/20 05:29:25;;;;;;;;;1.75;1.00;;;;;19.65;37.23;101340.31;5077598;27;51393;-53
2022/02/20 05:31:50;;;;;;;;;0.00;0.00;;;;;19.64;37.07;101344.97;5076501;27;51422;-52
2022/02/20 05:34:15;;;;;;;;;1.00;1.00;;;;;19.63;37.18;101354.28;5077371;27;51116;-48
2022/02/20 05:36:41;;;;;;;;;1.25;0.00;;;;;19.64;37.25;101355.13;5077198;27;51003;-51
2022/02/20 05:39:06;;;;;;;;;1.50;1.50;;;;;19.62;37.42;101355.34;5077582;27;51033;-49
2022/02/20 05:41:31;;;;;;;;;0.25;0.25;;;;;19.62;37.12;101354.47;5092184;27;52601;-52
2022/02/20 05:43:57;;;;;;;;;0.75;0.75;;;;;19.63;37.27;101362.53;5071212;27;51038;-51
2022/02/20 05:46:22;;;;;;;;;1.50;0.00;;;;;19.63;37.32;101361.66;5076578;28;51198;-53
2022/02/20 05:48:47;;;;;;;;;1.00;0.50;;;;;19.62;37.26;101384.72;5076408;27;51190;-52
2022/02/20 05:51:13;;;;;;;;;1.50;0.00;;;;;19.63;37.33;101391.91;5075539;27;51983;-48
2022/02/20 05:53:38;;;;;;;;;1.00;1.00;;;;;19.63;37.27;101397.41;5076058;27;51123;-52
2022/02/20 05:56:04;;;;;;;;;0.00;0.00;;;;;19.63;37.67;101391.91;5077019;27;51091;-51
2022/02/20 05:58:29;;;;;;;;;1.25;1.00;;;;;19.63;37.60;101402.91;5077052;27;51206;-52
2022/02/20 06:00:55;;;;;;;;;1.00;0.00;;;;;19.62;37.49;101396.56;5076288;27;51130;-52
2022/02/20 06:03:20;;;;;;;;;1.25;1.00;;;;;19.62;37.53;101401.22;5076726;27;51137;-52
2022/02/20 06:05:45;;;;;;;;;1.00;1.00;;;;;19.61;37.53;101403.09;5076548;27;51468;-52
2022/02/20 06:08:12;;;;;;;;;3.00;0.25;;;;;19.60;37.67;101398.66;5077022;27;51346;-52
2022/02/20 06:10:37;;;;;;;;;1.00;1.00;;;;;19.59;37.46;101395.06;5075915;28;53607;-52
2022/02/20 06:13:03;;;;;;;;;0.00;0.00;;;;;19.60;37.47;101405.00;5076355;27;51128;-53
2022/02/20 06:15:30;;;;;;;;;0.50;0.50;;;;;19.60;37.63;101379.44;5077074;27;51007;-52
2022/02/20 06:17:55;;;;;;;;;2.75;1.00;;;;;19.59;37.44;101364.84;5076023;27;51384;-48
2022/02/20 06:20:21;;;;;;;;;0.50;0.25;;;;;19.59;37.11;101381.31;5076417;27;51965;-52
2022/02/20 06:22:46;;;;;;;;;0.50;0.50;;;;;19.58;37.46;101376.84;5076350;27;50962;-52
2022/02/20 06:25:11;;;;;;;;;0.00;0.00;;;;;19.57;37.32;101369.66;5076672;27;51122;-51
2022/02/20 06:27:37;;;;;;;;;2.00;1.00;;;;;19.59;37.44;101372.19;5075900;27;51052;-52
2022/02/20 06:30:03;;;;;;;;;3.00;1.00;;;;;19.58;37.75;101365.00;5075596;27;51971;-53
2022/02/20 06:32:28;;;;;;;;;2.75;0.75;;;;;19.57;37.41;101357.81;5076382;27;51201;-52
2022/02/20 06:34:53;;;;;;;;;1.50;1.00;;;;;19.58;37.45;101359.53;5076210;27;51267;-54
2022/02/20 06:37:19;;;;;;;;;0.25;0.25;;;;;19.57;37.49;101357.81;5076138;27;51319;-51
2022/02/20 06:39:45;;;;;;;;;0.25;0.00;;;;;19.56;37.57;101362.47;5076357;27;51013;-49
2022/02/20 06:42:14;;;;;;;;;0.25;0.25;;;;;19.55;37.66;101363.53;5075850;27;51163;-54
2022/02/20 06:44:41;;;;;;;;;0.25;0.00;;;;;19.56;37.76;101358.88;5076456;27;51056;-47
2022/02/20 06:47:06;;;;;;;;;1.00;0.00;;;;;19.55;37.58;101351.66;5075470;27;51283;-47
2022/02/20 06:49:33;;;;;;;;;1.00;0.25;;;;;19.55;37.61;101352.53;5075988;27;52011;-48
2022/02/20 06:51:58;;;;;;;;;0.25;0.25;;;;;19.54;37.59;101348.06;5075715;27;51366;-51
2022/02/20 06:54:27;;;;;;;;;1.25;0.00;;;;;19.54;37.53;101359.06;5076548;28;51829;-49
2022/02/20 06:56:55;;;;;;;;;1.00;0.00;;;;;19.55;37.80;101352.53;5075314;27;51292;-53
2022/02/20 06:59:21;;;;;;;;;0.25;0.00;;;;;19.56;37.58;101359.72;5075789;27;51992;-53
2022/02/20 07:01:46;;;;;;;;;0.00;0.00;;;;;19.56;37.57;101356.13;5075797;27;51047;-53
2022/02/20 07:04:12;;;;;;;;;0.50;0.00;;;;;19.57;38.62;101352.31;5075998;27;51148;-51
2022/02/20 07:06:37;;;;;;;;;0.25;0.25;;;;;19.61;38.25;101361.88;5075610;27;51176;-50
2022/02/20 07:09:02;;;;;;;;;1.75;0.75;;;;;19.61;38.39;101361.88;5091295;27;54263;-51
2022/02/20 07:11:29;;;;;;;;;1.75;1.75;;;;;19.60;38.02;101372.03;5075485;27;51087;-49
2022/02/20 07:13:54;;;;;;;;;2.00;2.00;;;;;19.59;37.92;101374.94;5075440;27;51179;-51
2022/02/20 07:16:19;;;;;;;;;3.75;2.00;;;;;19.56;38.01;101389.97;5075539;27;51178;-48
2022/02/20 07:18:45;;;;;;;;;3.50;1.00;;;;;19.52;38.25;101399.63;5075143;27;51133;-52
2022/02/20 07:21:10;;;;;;;;;4.00;3.00;;;;;19.48;37.82;101391.97;5090850;27;51185;-50
2022/02/20 07:23:35;;;;;;;;;2.00;1.75;;;;;19.44;38.34;101399.78;5075053;27;51104;-53
2022/02/20 07:26:01;;;;;;;;;1.50;1.50;;;;;19.44;38.16;101388.81;5075785;27;51382;-53
2022/02/20 07:28:26;;;;;;;;;1.00;1.00;;;;;19.48;38.17;101401.06;5075549;27;51830;-51
2022/02/20 07:30:52;;;;;;;;;2.00;1.00;;;;;19.57;38.20;101399.91;5075000;27;51180;-50
2022/02/20 07:33:17;;;;;;;;;2.00;2.00;;;;;19.67;38.11;101395.94;5075641;27;51027;-53
2022/02/20 07:35:43;;;;;;;;;1.00;0.75;;;;;19.75;38.12;101393.03;5074968;27;51105;-52
2022/02/20 07:38:08;;;;;;;;;3.50;1.25;;;;;19.85;37.82;101402.59;5075304;27;51525;-51
2022/02/20 07:40:34;;;;;;;;;1.75;1.25;;;;;19.95;37.69;101395.84;5074884;27;51067;-53
2022/02/20 07:42:59;;;;;;;;;2.25;0.50;;;;;20.04;37.59;101400.97;5075138;27;51011;-48
2022/02/20 07:45:25;;;;;;;;;1.75;1.00;;;;;20.12;37.92;101398.03;5075509;27;51131;-54
2022/02/20 07:47:57;;;;;;;;;0.00;0.00;;;;;20.22;37.53;101402.28;5075079;27;51807;-50
2022/02/20 07:50:25;;;;;;;;;0.25;0.00;;;;;20.30;37.29;101413.09;5067403;28;51282;-54
2022/02/20 07:52:50;;;;;;;;;2.75;1.50;;;;;20.37;37.75;101424.97;5075322;28;51058;-51
2022/02/20 07:55:16;;;;;;;;;2.00;0.75;;;;;20.43;37.81;101421.44;5074704;28;51055;-50
2022/02/20 07:57:46;;;;;;;;;1.00;1.00;;;;;20.48;37.87;101435.41;5074759;28;51725;-52
2022/02/20 08:00:18;;;;;;;;;1.00;0.00;;;;;20.51;37.78;101448.75;5090485;27;51273;-50
2022/02/20 08:02:44;;;;;;;;;3.00;1.00;;;;;20.54;37.45;101450.25;5067273;28;51154;-49
2022/02/20 08:05:09;;;;;;;;;0.00;0.00;;;;;20.55;37.67;101446.44;5075053;27;51343;-48
2022/02/20 08:07:35;;;;;;;;;6.00;2.00;;;;;20.57;37.57;101444.34;5074575;27;51990;-51
2022/02/20 08:10:01;;;;;;;;;2.00;0.00;;;;;20.58;37.54;101440.53;5075143;27;51074;-51
2022/02/20 08:12:26;;;;;;;;;2.00;0.25;;;;;20.61;37.85;101440.09;5074117;28;51267;-52
2022/02/20 08:14:52;;;;;;;;;0.00;0.00;;;;;20.64;37.81;101421.28;5074553;28;51843;-53
2022/02/20 08:17:17;;;;;;;;;1.75;0.00;;;;;20.67;37.35;101406.22;5073184;27;52633;-52
2022/02/20 08:19:42;;;;;;;;;0.00;0.00;;;;;20.68;37.38;101381.25;5074589;27;51019;-53
2022/02/20 08:22:08;;;;;;;;;4.00;1.00;;;;;20.72;37.49;101377.00;5074625;27;51059;-51
2022/02/20 08:24:33;;;;;;;;;3.00;0.50;;;;;20.75;37.75;101395.88;5073715;27;51240;-53
2022/02/20 08:26:59;;;;;;;;;2.50;0.00;;;;;20.78;37.31;101408.38;5074294;27;51456;-49
2022/02/20 08:29:24;;;;;;;;;2.25;0.75;;;;;20.83;37.68;101410.47;5074581;27;51372;-51
2022/02/20 08:31:49;;;;;;;;;0.75;0.75;;;;;20.88;37.84;101413.44;5074297;27;51163;-53
2022/02/20 08:34:15;;;;;;;;;0.75;0.75;;;;;20.91;37.44;101400.09;5073913;27;51200;-50
2022/02/20 08:36:40;;;;;;;;;0.00;0.00;;;;;20.94;37.80;101393.31;5074284;27;51122;-49
2022/02/20 08:39:05;;;;;;;;;1.00;1.00;;;;;20.96;37.74;101394.81;5074861;27;51126;-53
2022/02/20 08:41:31;;;;;;;;;1.50;1.50;;;;;21.00;37.77;101395.22;5074473;27;51112;-52
2022/02/20 08:43:56;;;;;;;;;1.75;0.75;;;;;21.02;38.09;101385.69;5073934;27;51362;-49
2022/02/20 08:46:22;;;;;;;;;0.00;0.00;;;;;21.06;38.21;101371.50;5074270;27;50911;-48
2022/02/20 08:48:47;;;;;;;;;2.00;0.00;;;;;21.08;37.76;101369.38;5074842;27;51122;-52
2022/02/20 08:51:12;;;;;;;;;0.00;0.00;;;;;21.12;37.99;101388.00;5074424;27;51076;-50
2022/02/20 08:53:38;;;;;;;;;0.00;0.00;;;;;21.16;37.80;101394.81;5074019;27;51793;-52
2022/02/20 08:56:07;;;;;;;;;0.00;0.00;;;;;21.19;38.03;101394.38;5077534;27;51198;-49
2022/02/20 08:58:34;;;;;;;;;2.00;0.75;;;;;21.20;38.07;101374.03;5077661;27;51195;-52
2022/02/20 09:01:00;;;;;;;;;0.25;0.00;;;;;21.24;37.59;101380.78;5078160;28;51181;-50
2022/02/20 09:03:26;;;;;;;;;1.75;1.75;;;;;21.26;38.06;101370.44;5077856;27;51103;-48
2022/02/20 09:05:51;;;;;;;;;2.50;0.25;;;;;21.28;37.83;101382.09;5077454;27;51972;-48
2022/02/20 09:08:16;;;;;;;;;1.25;1.00;;;;;21.35;37.68;101392.25;5077562;27;51214;-53
2022/02/20 09:10:42;;;;;;;;;1.50;1.25;;;;;21.36;38.04;101385.66;5076946;28;51236;-49
2022/02/20 09:13:08;;;;;;;;;1.25;1.00;;;;;21.38;37.55;101391.84;5077742;27;51084;-51
2022/02/20 09:15:34;;;;;;;;;1.50;0.50;;;;;21.41;37.72;101394.16;5077304;27;51815;-53
2022/02/20 09:18:02;;;;;;;;;1.00;0.00;;;;;21.43;37.78;101392.03;5077387;27;51147;-48
2022/02/20 09:20:28;;;;;;;;;6.00;1.25;;;;;21.45;38.31;101376.94;5077052;27;51537;-50
2022/02/20 09:22:54;;;;;;;;;1.50;0.75;;;;;21.48;38.26;101378.47;5077651;27;51370;-51
2022/02/20 09:25:20;;;;;;;;;2.50;1.00;;;;;21.49;37.55;101371.88;5077297;27;51828;-49
2022/02/20 09:27:45;;;;;;;;;1.00;1.00;;;;;21.53;37.97;101373.13;5076375;27;51028;-54
2022/02/20 09:30:12;;;;;;;;;3.00;1.00;;;;;21.56;38.35;101367.16;5076306;27;51128;-53
2022/02/20 09:32:37;;;;;;;;;1.50;1.50;;;;;21.59;38.19;101375.88;5077274;27;51108;-50
2022/02/20 09:35:03;;;;;;;;;1.25;0.75;;;;;21.64;38.28;101377.13;5076901;27;50996;-51
2022/02/20 09:37:28;;;;;;;;;2.50;2.00;;;;;21.66;38.21;101375.84;5076647;27;51004;-51
2022/02/20 09:39:54;;;;;;;;;2.50;1.00;;;;;21.72;37.73;101372.22;5076792;27;51254;-49
2022/02/20 09:42:20;;;;;;;;;0.00;0.00;;;;;21.79;37.65;101377.72;5076855;27;51203;-51
2022/02/20 09:44:45;;;;;;;;;1.00;1.00;;;;;21.82;37.68;101363.47;5076011;27;51627;-48
2022/02/20 09:47:12;;;;;;;;;5.25;1.00;;;;;21.83;37.72;101348.63;5075563;27;51142;-50
2022/02/20 09:49:37;;;;;;;;;3.50;2.00;;;;;21.86;38.23;101348.19;5076293;27;51182;-51
2022/02/20 09:52:03;;;;;;;;;1.00;1.00;;;;;21.87;37.99;101331.41;5077000;27;51255;-52
2022/02/20 09:54:30;;;;;;;;;0.50;0.50;;;;;21.90;37.75;101343.94;5076025;27;51925;-52
2022/02/20 09:56:55;;;;;;;;;3.25;1.25;;;;;21.93;37.99;101337.13;5075703;28;52677;-48
2022/02/20 09:59:21;;;;;;;;;1.75;1.75;;;;;21.97;37.88;101327.31;5076961;27;51089;-51
2022/02/20 10:02:16;;;;;;;;;1.00;1.00;;;;;21.99;37.82;101336.22;5076055;27;51164;-51
2022/02/20 10:04:41;;;;;;;;;2.50;1.00;;;;;22.04;37.61;101345.53;5075562;27;51013;-53
2022/02/20 10:07:24;;;;;;;;;1.25;1.00;;;;;22.07;37.26;101347.03;5076451;27;51040;-51
2022/02/20 10:09:49;;;;;;;;;1.00;1.00;;;;;22.07;37.57;101358.06;5073505;28;51039;-52
2022/02/20 10:12:26;;;;;;;;;5.00;2.00;;;;;22.05;37.61;101366.53;5075427;27;51052;-52
2022/02/20 10:14:51;;;;;;;;;5.00;3.00;;;;;22.04;37.28;101366.78;5075857;27;51697;-50
2022/02/20 10:17:21;;;;;;;;;2.50;2.25;;;;;22.05;37.53;101362.94;5076423;28;51010;-52
2022/02/20 10:20:04;;;;;;;;;5.00;4.50;;;;;22.09;37.20;101361.44;5075666;27;51179;-50
2022/02/20 10:22:33;;;;;;;;;6.25;5.00;;;;;22.10;37.52;101365.94;5071346;28;51246;-51
2022/02/20 10:25:07;;;;;;;;;5.75;3.00;;;;;22.10;37.41;101379.72;5075943;27;51957;-52
2022/02/20 10:27:34;;;;;;;;;3.25;2.75;;;;;22.08;37.48;101382.69;5091102;27;51170;-51
2022/02/20 10:30:18;;;;;;;;;5.25;3.25;;;;;22.05;37.08;101350.00;5075621;27;50922;-52
2022/02/20 10:32:44;;;;;;;;;3.50;3.25;;;;;22.02;37.13;101353.19;5070626;28;51081;-49
2022/02/20 10:35:15;;;;;;;;;4.00;3.25;;;;;22.00;37.15;101349.81;5075331;28;51116;-49
2022/02/20 10:37:41;;;;;;;;;3.75;3.75;;;;;21.97;37.09;101341.13;5076049;27;51375;-50
2022/02/20 10:40:30;;;;;;;;;3.25;3.25;;;;;21.93;37.21;101350.91;5075600;27;51083;-49
2022/02/20 10:42:58;;;;;;;;;3.00;3.00;;;;;21.90;37.56;101369.59;5075404;28;51004;-52
2022/02/20 10:45:28;;;;;;;;;2.00;2.00;;;;;21.87;37.57;101364.50;5073437;28;51131;-52
2022/02/20 10:47:55;;;;;;;;;6.00;3.50;;;;;21.84;36.66;101351.16;5074917;27;51002;-54
2022/02/20 10:50:26;;;;;;;;;5.50;3.25;;;;;21.81;37.13;101368.16;5073248;27;51326;-53
2022/02/20 10:53:12;;;;;;;;;5.00;4.00;;;;;21.75;37.64;101346.09;5075067;28;51116;-50
2022/02/20 10:55:41;;;;;;;;;4.25;2.75;;;;;21.71;36.97;101358.66;5075917;27;51397;-52
2022/02/20 10:58:15;;;;;;;;;6.75;4.00;;;;;21.66;36.97;101374.97;5076311;28;51343;-50
2022/02/20 11:01:01;;;;;;;;;4.00;3.25;;;;;21.61;37.30;101348.94;5076252;27;51061;-51
2022/02/20 11:03:28;;;;;;;;;3.50;3.00;;;;;21.58;36.87;101343.84;5076730;27;50940;-52
2022/02/20 11:05:55;;;;;;;;;4.00;2.00;;;;;21.56;37.01;101334.09;5076207;27;51481;-53
2022/02/20 11:08:23;;;;;;;;;3.00;2.00;;;;;21.53;37.32;101329.88;5076280;27;51236;-52
2022/02/20 11:10:50;;;;;;;;;3.50;1.75;;;;;21.51;36.98;101325.63;5076048;27;51050;-51
2022/02/20 11:13:17;;;;;;;;;2.00;2.00;;;;;21.48;36.93;101320.56;5076176;27;51184;-53
2022/02/20 11:15:46;;;;;;;;;3.25;2.00;;;;;21.45;36.88;101323.75;5075056;27;51954;-54
2022/02/20 11:18:16;;;;;;;;;4.00;1.75;;;;;21.43;36.88;101323.13;5076037;27;51367;-50
2022/02/20 11:20:44;;;;;;;;;1.50;1.00;;;;;21.40;37.38;101310.63;5075787;27;51005;-51